createdAt,value
2023-05-22T00:02:23.242Z,99777.66
2023-05-22T00:04:51.576Z,99774.63
2023-05-22T00:07:19.060Z,99776.94
2023-05-22T00:09:46.857Z,99776.45
2023-05-22T00:12:14.467Z,99778.20
2023-05-22T00:14:41.735Z,99781.34
2023-05-22T00:17:10.534Z,99779.70
2023-05-22T00:19:37.924Z,99778.39
2023-05-22T00:22:05.867Z,99780.35
2023-05-22T00:24:33.196Z,99780.21
2023-05-22T00:27:00.450Z,99780.27
2023-05-22T00:29:28.013Z,99773.39
2023-05-22T00:31:57.108Z,99775.16
2023-05-22T00:34:24.418Z,99773.73
2023-05-22T00:36:51.720Z,99774.76
2023-05-22T00:39:18.871Z,99773.89
2023-05-22T00:41:46.437Z,99770.43
2023-05-22T00:44:13.687Z,99769.94
2023-05-22T00:46:41.274Z,99767.70
2023-05-22T00:49:08.726Z,99767.85
2023-05-22T00:51:35.962Z,99767.59
2023-05-22T00:54:03.220Z,99769.85
2023-05-22T00:56:30.575Z,99768.74
2023-05-22T00:58:58.957Z,99771.07
2023-05-22T01:01:26.895Z,99769.31
2023-05-22T01:03:54.461Z,99774.98
2023-05-22T01:06:21.945Z,99775.06
2023-05-22T01:08:49.200Z,99772.45
2023-05-22T01:11:25.942Z,99768.20
2023-05-22T01:14:16.988Z,99768.61
2023-05-22T01:16:54.893Z,99768.91
2023-05-22T01:19:41.438Z,99776.11
2023-05-22T01:22:27.593Z,99773.06
2023-05-22T01:24:54.850Z,99767.70
2023-05-22T01:27:50.568Z,99766.92
2023-05-22T01:30:43.126Z,99771.74
2023-05-22T01:33:12.711Z,99773.15
2023-05-22T01:35:39.989Z,99769.14
2023-05-22T01:38:08.062Z,99770.45
2023-05-22T01:40:35.304Z,99769.76
2023-05-22T01:43:04.612Z,99766.10
2023-05-22T01:45:32.157Z,99763.25
2023-05-22T01:47:59.573Z,99762.81
2023-05-22T01:50:26.886Z,99758.80
2023-05-22T01:53:16.158Z,99755.90
2023-05-22T01:56:01.334Z,99756.77
2023-05-22T01:58:45.723Z,99751.27
2023-05-22T02:01:13.066Z,99749.95
2023-05-22T02:03:40.484Z,99747.08
2023-05-22T02:06:09.254Z,99746.97
2023-05-22T02:08:39.115Z,99745.16
2023-05-22T02:11:06.364Z,99745.21
2023-05-22T02:13:33.874Z,99745.84
2023-05-22T02:16:01.233Z,99746.05
2023-05-22T02:18:31.911Z,99745.24
2023-05-22T02:20:59.680Z,99745.46
2023-05-22T02:23:29.810Z,99747.15
2023-05-22T02:25:57.277Z,99749.97
2023-05-22T02:28:24.623Z,99752.48
2023-05-22T02:30:51.884Z,99751.86
2023-05-22T02:33:19.340Z,99750.16
2023-05-22T02:35:49.711Z,99738.70
2023-05-22T02:38:17.134Z,99750.28
2023-05-22T02:40:45.201Z,99751.54
2023-05-22T02:43:12.438Z,99751.70
2023-05-22T02:45:39.895Z,99744.31
2023-05-22T02:48:07.199Z,99746.83
2023-05-22T02:50:34.542Z,99746.34
2023-05-22T02:53:01.863Z,99746.90
2023-05-22T02:55:29.130Z,99747.42
2023-05-22T02:57:56.376Z,99749.67
2023-05-22T03:00:25.697Z,99744.83
2023-05-22T03:02:53.245Z,99747.80
2023-05-22T03:05:20.740Z,99745.81
2023-05-22T03:07:49.685Z,99749.26
2023-05-22T03:10:17.447Z,99755.00
2023-05-22T03:12:44.915Z,99754.75
2023-05-22T03:15:12.574Z,99758.44
2023-05-22T03:17:40.764Z,99762.80
2023-05-22T03:20:09.018Z,99762.99
2023-05-22T03:22:36.631Z,99764.02
2023-05-22T03:25:06.578Z,99766.38
2023-05-22T03:27:33.754Z,99763.79
2023-05-22T03:30:02.053Z,99765.31
2023-05-22T03:32:30.050Z,99764.45
2023-05-22T03:34:59.108Z,99760.67
2023-05-22T03:37:26.361Z,99761.10
2023-05-22T03:39:53.624Z,99761.68
2023-05-22T03:42:25.477Z,99757.03
2023-05-22T03:44:53.037Z,99757.46
2023-05-22T03:47:20.571Z,99760.21
2023-05-22T03:49:48.069Z,99758.45
2023-05-22T03:52:15.317Z,99755.48
2023-05-22T03:54:43.499Z,99750.48
2023-05-22T03:57:11.364Z,99750.92
2023-05-22T03:59:38.523Z,99749.88
2023-05-22T04:02:05.861Z,99749.81
2023-05-22T04:04:34.352Z,99749.51
2023-05-22T04:07:03.089Z,99748.71
2023-05-22T04:09:31.734Z,99751.09
2023-05-22T04:11:59.025Z,99744.22
2023-05-22T04:14:26.547Z,99746.15
2023-05-22T04:16:54.213Z,99747.61
2023-05-22T04:19:22.642Z,99745.47
2023-05-22T04:21:49.952Z,99749.95
2023-05-22T04:24:18.656Z,99747.83
2023-05-22T04:26:45.895Z,99745.43
2023-05-22T04:29:14.850Z,99746.75
2023-05-22T04:31:43.378Z,99747.30
2023-05-22T04:34:13.398Z,99747.38
2023-05-22T04:36:40.643Z,99743.70
2023-05-22T04:39:08.509Z,99741.98
2023-05-22T04:41:35.775Z,99741.71
2023-05-22T04:44:04.464Z,99739.58
2023-05-22T04:46:31.962Z,99739.63
2023-05-22T04:49:02.431Z,99737.89
2023-05-22T04:51:31.689Z,99733.57
2023-05-22T04:56:36.753Z,99732.62
2023-05-22T04:59:09.567Z,99731.42
2023-05-22T05:01:38.655Z,99722.65
2023-05-22T05:04:06.418Z,99729.97
2023-05-22T05:06:34.988Z,99729.94
2023-05-22T05:09:03.407Z,99733.88
2023-05-22T05:11:30.652Z,99731.25
2023-05-22T05:13:58.315Z,99728.23
2023-05-22T05:16:26.756Z,99730.43
2023-05-22T05:18:54.072Z,99730.30
2023-05-22T05:21:21.721Z,99731.33
2023-05-22T05:23:49.173Z,99738.21
2023-05-22T05:26:16.420Z,99742.66
2023-05-22T05:28:43.686Z,99741.59
2023-05-22T05:31:11.334Z,99736.66
2023-05-22T05:34:07.665Z,99739.26
2023-05-22T05:36:57.871Z,99741.45
2023-05-22T05:39:26.148Z,99739.75
2023-05-22T05:41:53.604Z,99738.59
2023-05-22T05:44:21.877Z,99731.95
2023-05-22T05:46:49.126Z,99732.58
2023-05-22T05:49:19.551Z,99727.16
2023-05-22T05:51:47.536Z,99723.16
2023-05-22T05:54:16.969Z,99720.41
2023-05-22T05:56:45.519Z,99723.13
2023-05-22T05:59:13.587Z,99720.92
2023-05-22T06:01:59.790Z,99723.19
2023-05-22T06:04:28.667Z,99719.89
2023-05-22T06:06:56.545Z,99720.02
2023-05-22T06:09:38.238Z,99719.99
2023-05-22T06:12:13.124Z,99719.11
2023-05-22T06:14:43.491Z,99708.77
2023-05-22T06:17:10.851Z,99710.42
2023-05-22T06:19:39.944Z,99702.00
2023-05-22T06:22:07.401Z,99703.42
2023-05-22T06:24:35.262Z,99702.34
2023-05-22T06:27:07.329Z,99706.36
2023-05-22T06:29:34.992Z,99705.73
2023-05-22T06:32:02.918Z,99702.83
2023-05-22T06:34:30.459Z,99702.37
2023-05-22T06:36:58.588Z,99701.71
2023-05-22T06:39:29.720Z,99697.48
2023-05-22T06:41:57.192Z,99698.57
2023-05-22T06:44:26.141Z,99697.17
2023-05-22T06:46:57.741Z,99700.08
2023-05-22T06:49:26.632Z,99699.01
2023-05-22T06:51:55.525Z,99693.51
2023-05-22T06:54:22.883Z,99693.66
2023-05-22T06:56:54.060Z,99696.60
2023-05-22T06:59:21.382Z,99688.23
2023-05-22T07:01:51.708Z,99686.17
2023-05-22T07:04:23.667Z,99688.81
2023-05-22T07:07:00.036Z,99686.15
2023-05-22T07:09:27.605Z,99686.55
2023-05-22T07:11:54.845Z,99685.55
2023-05-22T07:14:22.112Z,99689.46
2023-05-22T07:16:49.545Z,99685.52
2023-05-22T07:19:21.855Z,99687.30
2023-05-22T07:21:49.174Z,99688.91
2023-05-22T07:24:17.896Z,99691.71
2023-05-22T07:26:46.800Z,99689.93
2023-05-22T07:29:14.626Z,99687.20
2023-05-22T07:31:42.678Z,99683.79
2023-05-22T07:34:10.866Z,99687.59
2023-05-22T07:36:38.425Z,99689.17
2023-05-22T07:39:05.890Z,99690.93
2023-05-22T07:41:36.519Z,99688.94
2023-05-22T07:44:03.868Z,99688.08
2023-05-22T07:46:35.893Z,99689.10
2023-05-22T07:49:10.777Z,99688.67
2023-05-22T07:51:41.494Z,99686.44
2023-05-22T07:54:10.492Z,99684.08
2023-05-22T07:56:43.477Z,99682.88
2023-05-22T07:59:12.315Z,99673.85
2023-05-22T08:01:40.618Z,99674.31
2023-05-22T08:04:08.114Z,99672.98
2023-05-22T08:06:35.772Z,99674.27
2023-05-22T08:09:04.635Z,99673.52
2023-05-22T08:11:32.109Z,99669.32
2023-05-22T08:13:59.361Z,99667.70
2023-05-22T08:16:26.761Z,99665.58
2023-05-22T08:18:54.085Z,99661.39
2023-05-22T08:21:21.327Z,99659.00
2023-05-22T08:23:48.573Z,99660.95
2023-05-22T08:26:16.347Z,99659.22
2023-05-22T08:28:44.722Z,99660.04
2023-05-22T08:31:12.335Z,99658.27
2023-05-22T08:33:39.964Z,99656.88
2023-05-22T08:36:07.307Z,99657.06
2023-05-22T08:38:34.785Z,99657.73
2023-05-22T08:41:02.010Z,99663.16
2023-05-22T08:43:29.468Z,99664.14
2023-05-22T08:46:02.757Z,99656.45
2023-05-22T08:48:31.546Z,99653.35
2023-05-22T08:51:08.415Z,99657.61
2023-05-22T08:53:37.041Z,99657.80
2023-05-22T08:56:06.217Z,99658.23
2023-05-22T08:58:36.634Z,99658.73
2023-05-22T09:01:04.902Z,99654.20
2023-05-22T09:03:35.625Z,99650.21
2023-05-22T09:06:04.483Z,99655.39
2023-05-22T09:08:31.718Z,99652.34
2023-05-22T09:10:59.067Z,99653.56
2023-05-22T09:13:27.080Z,99651.83
2023-05-22T09:15:58.934Z,99654.02
2023-05-22T09:18:30.167Z,99652.02
2023-05-22T09:20:58.302Z,99652.76
2023-05-22T09:23:27.901Z,99647.87
2023-05-22T09:25:59.676Z,99642.29
2023-05-22T09:28:27.123Z,99648.70
2023-05-22T09:30:55.010Z,99641.60
2023-05-22T09:33:23.062Z,99642.59
2023-05-22T09:35:53.863Z,99641.14
2023-05-22T09:38:27.014Z,99638.40
2023-05-22T09:40:54.976Z,99635.58
2023-05-22T09:43:23.710Z,99629.98
2023-05-22T09:45:56.128Z,99628.91
2023-05-22T09:48:23.522Z,99630.19
2023-05-22T09:50:52.678Z,99631.54
2023-05-22T09:53:20.746Z,99624.82
2023-05-22T09:55:48.203Z,99620.55
2023-05-22T09:58:18.943Z,99621.25
2023-05-22T10:00:46.706Z,99620.70
2023-05-22T10:03:16.212Z,99625.80
2023-05-22T10:05:48.775Z,99617.00
2023-05-22T10:08:21.602Z,99613.98
2023-05-22T10:10:53.537Z,99610.29
2023-05-22T10:13:21.256Z,99604.31
2023-05-22T10:15:49.236Z,99607.98
2023-05-22T10:18:17.627Z,99605.86
2023-05-22T10:20:45.204Z,99607.65
2023-05-22T10:23:12.673Z,99602.34
2023-05-22T10:25:40.036Z,99599.15
2023-05-22T10:28:07.577Z,99605.79
2023-05-22T10:30:42.973Z,99598.33
2023-05-22T10:33:43.603Z,99596.15
2023-05-22T10:36:33.462Z,99592.30
2023-05-22T10:39:09.497Z,99590.80
2023-05-22T10:41:36.956Z,99586.04
2023-05-22T10:44:04.410Z,99582.96
2023-05-22T10:46:35.015Z,99579.17
2023-05-22T10:49:02.510Z,99577.27
2023-05-22T10:51:29.861Z,99575.58
2023-05-22T10:54:02.550Z,99574.05
2023-05-22T10:56:33.957Z,99574.46
2023-05-22T10:59:08.630Z,99575.64
2023-05-22T11:01:38.604Z,99569.83
2023-05-22T11:04:12.648Z,99563.92
2023-05-22T11:06:45.968Z,99559.42
2023-05-22T11:09:30.920Z,99559.02
2023-05-22T11:12:16.830Z,99558.45
2023-05-22T11:14:51.122Z,99561.98
2023-05-22T11:17:22.040Z,99564.23
2023-05-22T11:19:57.467Z,99561.52
2023-05-22T11:22:41.002Z,99558.77
2023-05-22T11:25:10.995Z,99552.30
2023-05-22T11:27:39.842Z,99551.48
2023-05-22T11:30:08.650Z,99556.20
2023-05-22T11:32:40.169Z,99536.02
2023-05-22T11:35:19.406Z,99541.89
2023-05-22T11:37:47.082Z,99537.19
2023-05-22T11:40:16.259Z,99537.34
2023-05-22T11:42:43.737Z,99541.45
2023-05-22T11:45:11.671Z,99540.59
2023-05-22T11:47:38.880Z,99535.30
2023-05-22T11:50:09.041Z,99537.50
2023-05-22T11:52:37.149Z,99540.95
2023-05-22T11:55:08.219Z,99538.42
2023-05-22T11:57:36.364Z,99535.73
2023-05-22T12:00:06.619Z,99525.73
2023-05-22T12:02:48.106Z,99526.29
2023-05-22T12:05:16.960Z,99522.02
2023-05-22T12:07:45.134Z,99515.81
2023-05-22T12:10:14.665Z,99523.52
2023-05-22T12:12:43.778Z,99522.87
2023-05-22T12:15:11.987Z,99523.36
2023-05-22T12:17:40.214Z,99518.61
2023-05-22T12:20:08.542Z,99511.92
2023-05-22T12:22:41.345Z,99510.38
2023-05-22T12:25:20.498Z,99505.64
2023-05-22T12:27:48.476Z,99502.58
2023-05-22T12:30:17.328Z,99500.58
2023-05-22T12:32:49.724Z,99502.90
2023-05-22T12:35:18.164Z,99499.20
2023-05-22T12:37:52.548Z,99496.52
2023-05-22T12:40:20.389Z,99499.86
2023-05-22T12:42:48.543Z,99496.52
2023-05-22T12:45:18.279Z,99488.88
2023-05-22T12:47:46.455Z,99489.52
2023-05-22T12:50:14.405Z,99486.74
2023-05-22T12:52:42.198Z,99481.28
2023-05-22T12:55:10.789Z,99483.15
2023-05-22T12:57:38.598Z,99480.81
2023-05-22T13:00:07.334Z,99481.25
2023-05-22T13:02:35.050Z,99483.07
2023-05-22T13:05:03.002Z,99488.37
2023-05-22T13:07:31.378Z,99482.88
2023-05-22T13:09:59.187Z,99480.81
2023-05-22T13:12:27.669Z,99479.81
2023-05-22T13:14:55.437Z,99479.96
2023-05-22T13:17:23.238Z,99481.33
2023-05-22T13:19:51.675Z,99480.61
2023-05-22T13:22:19.440Z,99477.93
2023-05-22T13:24:47.203Z,99473.63
2023-05-22T13:27:16.459Z,99472.91
2023-05-22T13:29:47.448Z,99472.50
2023-05-22T13:32:15.509Z,99470.44
2023-05-22T13:34:43.360Z,99470.14
2023-05-22T13:37:11.562Z,99473.06
2023-05-22T13:39:39.422Z,99470.59
2023-05-22T13:42:07.391Z,99468.82
2023-05-22T13:44:35.778Z,99467.52
2023-05-22T13:47:04.013Z,99466.93
2023-05-22T13:49:31.820Z,99465.03
2023-05-22T13:51:59.580Z,99469.71
2023-05-22T13:54:27.745Z,99470.39
2023-05-22T13:56:58.026Z,99470.39
2023-05-22T13:59:26.048Z,99469.77
2023-05-22T14:01:53.854Z,99469.39
2023-05-22T14:04:21.732Z,99468.53
2023-05-22T14:06:49.654Z,99463.41
2023-05-22T14:09:17.842Z,99461.42
2023-05-22T14:11:45.690Z,99455.44
2023-05-22T14:14:13.459Z,99454.51
2023-05-22T14:16:41.263Z,99459.50
2023-05-22T14:19:09.249Z,99456.27
2023-05-22T14:21:37.264Z,99454.34
2023-05-22T14:24:05.430Z,99454.92
2023-05-22T14:26:33.303Z,99447.08
2023-05-22T14:29:01.574Z,99442.77
2023-05-22T14:31:29.724Z,99441.05
2023-05-22T14:33:57.616Z,99441.48
2023-05-22T14:36:25.387Z,99442.91
2023-05-22T14:38:53.144Z,99443.19
2023-05-22T14:41:22.241Z,99443.30
2023-05-22T14:43:50.013Z,99439.42
2023-05-22T14:46:17.833Z,99437.20
2023-05-22T14:48:45.840Z,99436.30
2023-05-22T14:51:13.609Z,99436.14
2023-05-22T14:53:41.375Z,99438.93
2023-05-22T14:56:09.449Z,99434.86
2023-05-22T14:58:37.215Z,99433.42
2023-05-22T15:01:05.386Z,99427.30
2023-05-22T15:03:33.101Z,99425.15
2023-05-22T15:06:02.148Z,99423.60
2023-05-22T15:08:29.912Z,99418.06
2023-05-22T15:10:57.677Z,99418.75
2023-05-22T15:13:25.441Z,99419.48
2023-05-22T15:15:53.446Z,99420.38
2023-05-22T15:18:21.420Z,99418.20
2023-05-22T15:20:49.248Z,99422.84
2023-05-22T15:23:17.221Z,99428.35
2023-05-22T15:25:45.290Z,99424.30
2023-05-22T15:28:13.051Z,99423.86
2023-05-22T15:30:43.888Z,99426.09
2023-05-22T15:33:12.076Z,99427.64
2023-05-22T15:35:41.250Z,99425.41
2023-05-22T15:38:12.762Z,99422.94
2023-05-22T15:40:41.971Z,99422.44
2023-05-22T15:43:09.884Z,99427.45
2023-05-22T15:45:38.106Z,99433.52
2023-05-22T15:48:06.811Z,99428.96
2023-05-22T15:50:34.806Z,99434.48
2023-05-22T15:53:02.584Z,99429.24
2023-05-22T15:55:30.541Z,99430.01
2023-05-22T15:57:58.523Z,99432.73
2023-05-22T16:00:27.465Z,99435.19
2023-05-22T16:02:55.369Z,99428.34
2023-05-22T16:05:23.354Z,99430.85
2023-05-22T16:07:51.072Z,99434.55
2023-05-22T16:10:20.103Z,99434.23
2023-05-22T16:12:48.282Z,99434.16
2023-05-22T16:15:16.250Z,99434.26
2023-05-22T16:17:45.152Z,99436.09
2023-05-22T16:20:13.135Z,99434.27
2023-05-22T16:25:18.515Z,99438.64
2023-05-22T16:27:46.445Z,99440.40
2023-05-22T16:30:17.529Z,99440.29
2023-05-22T16:32:48.774Z,99446.35
2023-05-22T16:35:16.874Z,99449.15
2023-05-22T16:37:44.680Z,99447.16
2023-05-22T16:40:12.547Z,99447.33
2023-05-22T16:42:40.486Z,99447.23
2023-05-22T16:45:08.815Z,99446.96
2023-05-22T16:47:36.592Z,99449.53
2023-05-22T16:50:04.959Z,99447.17
2023-05-22T16:52:32.810Z,99445.98
2023-05-22T16:55:01.826Z,99452.27
2023-05-22T16:57:29.667Z,99451.45
2023-05-22T16:59:57.965Z,99453.93
2023-05-22T17:02:26.446Z,99455.82
2023-05-22T17:04:54.900Z,99455.67
2023-05-22T17:07:22.689Z,99452.48
2023-05-22T17:09:50.429Z,99454.95
2023-05-22T17:14:08.494Z,99455.50
2023-05-22T17:16:36.363Z,99455.80
2023-05-22T17:19:04.208Z,99460.19
2023-05-22T17:21:32.188Z,99458.75
2023-05-22T17:23:59.951Z,99456.74
2023-05-22T17:26:27.977Z,99454.61
2023-05-22T17:28:55.689Z,99453.15
2023-05-22T17:31:23.468Z,99452.69
2023-05-22T17:33:51.324Z,99455.60
2023-05-22T17:36:19.085Z,99457.67
2023-05-22T17:38:46.858Z,99460.52
2023-05-22T17:41:14.624Z,99459.64
2023-05-22T17:43:42.427Z,99461.25
2023-05-22T17:46:10.487Z,99458.67
2023-05-22T17:48:38.233Z,99459.85
2023-05-22T17:51:06.088Z,99458.61
2023-05-22T17:53:35.685Z,99455.00
2023-05-22T17:56:05.008Z,99460.23
2023-05-22T17:58:33.117Z,99455.84
2023-05-22T18:01:00.952Z,99460.54
2023-05-22T18:03:28.886Z,99460.95
2023-05-22T18:05:57.310Z,99466.43
2023-05-22T18:08:25.161Z,99467.52
2023-05-22T18:10:52.923Z,99471.41
2023-05-22T18:13:20.686Z,99473.11
2023-05-22T18:15:50.405Z,99474.11
2023-05-22T18:18:18.271Z,99474.08
2023-05-22T18:20:46.556Z,99473.21
2023-05-22T18:23:14.306Z,99476.16
2023-05-22T18:25:42.388Z,99471.54
2023-05-22T18:28:10.398Z,99475.86
2023-05-22T18:30:38.313Z,99472.91
2023-05-22T18:33:06.320Z,99472.16
2023-05-22T18:35:34.060Z,99471.41
2023-05-22T18:38:02.239Z,99470.50
2023-05-22T18:40:30.107Z,99470.23
2023-05-22T18:42:57.972Z,99471.10
2023-05-22T18:45:25.744Z,99473.65
2023-05-22T18:47:53.811Z,99473.89
2023-05-22T18:50:23.575Z,99472.42
2023-05-22T18:52:51.608Z,99470.67
2023-05-22T18:55:19.370Z,99473.44
2023-05-22T18:57:47.129Z,99471.48
2023-05-22T19:00:15.008Z,99471.84
2023-05-22T19:02:42.831Z,99467.42
2023-05-22T19:05:10.891Z,99468.98
2023-05-22T19:07:38.708Z,99471.02
2023-05-22T19:10:08.253Z,99466.15
2023-05-22T19:12:36.181Z,99469.73
2023-05-22T19:15:05.330Z,99467.25
2023-05-22T19:17:33.216Z,99466.52
2023-05-22T19:20:01.172Z,99464.06
2023-05-22T19:22:28.992Z,99451.61
2023-05-22T19:24:56.757Z,99462.37
2023-05-22T19:27:24.524Z,99460.66
2023-05-22T19:29:52.288Z,99464.48
2023-05-22T19:32:20.054Z,99461.32
2023-05-22T19:34:47.922Z,99464.44
2023-05-22T19:37:15.692Z,99464.96
2023-05-22T19:39:43.456Z,99461.42
2023-05-22T19:42:11.631Z,99461.31
2023-05-22T19:44:39.432Z,99459.23
2023-05-22T19:47:07.897Z,99458.66
2023-05-22T19:49:37.312Z,99457.49
2023-05-22T19:52:06.207Z,99458.80
2023-05-22T19:54:35.408Z,99460.03
2023-05-22T19:57:03.554Z,99456.48
2023-05-22T19:59:31.318Z,99458.16
2023-05-22T20:01:59.132Z,99453.89
2023-05-22T20:04:27.058Z,99454.88
2023-05-22T20:06:54.826Z,99456.02
2023-05-22T20:09:22.584Z,99456.00
2023-05-22T20:11:50.558Z,99455.09
2023-05-22T20:14:18.325Z,99458.17
2023-05-22T20:16:46.346Z,99459.07
2023-05-22T20:19:15.187Z,99459.29
2023-05-22T20:21:43.159Z,99463.23
2023-05-22T20:24:17.542Z,99459.98
2023-05-22T20:26:45.171Z,99458.28
2023-05-22T20:29:16.095Z,99457.30
2023-05-22T20:31:44.101Z,99456.84
2023-05-22T20:34:12.074Z,99456.71
2023-05-22T20:36:40.103Z,99453.28
2023-05-22T20:39:09.195Z,99452.84
2023-05-22T20:41:36.975Z,99451.98
2023-05-22T20:44:04.832Z,99450.80
2023-05-22T20:46:32.612Z,99446.89
2023-05-22T20:49:00.471Z,99449.79
2023-05-22T20:51:32.965Z,99453.00
2023-05-22T20:54:01.136Z,99458.34
2023-05-22T20:56:30.358Z,99458.68
2023-05-22T20:58:58.201Z,99460.72
2023-05-22T21:01:26.013Z,99455.11
2023-05-22T21:03:56.615Z,99454.65
2023-05-22T21:06:24.668Z,99453.33
2023-05-22T21:08:54.278Z,99454.20
2023-05-22T21:11:22.352Z,99452.66
2023-05-22T21:13:50.223Z,99450.80
2023-05-22T21:16:17.991Z,99452.30
2023-05-22T21:18:45.857Z,99455.94
2023-05-22T21:21:14.761Z,99454.37
2023-05-22T21:23:43.651Z,99456.56
2023-05-22T21:26:11.417Z,99453.30
2023-05-22T21:28:39.226Z,99453.92
2023-05-22T21:31:07.398Z,99453.38
2023-05-22T21:33:35.331Z,99450.67
2023-05-22T21:36:03.153Z,99454.82
2023-05-22T21:38:31.173Z,99452.73
2023-05-22T21:40:59.553Z,99452.17
2023-05-22T21:43:27.257Z,99451.10
2023-05-22T21:45:54.985Z,99450.88
2023-05-22T21:48:22.752Z,99451.28
2023-05-22T21:50:50.625Z,99450.81
2023-05-22T21:53:18.491Z,99454.51
2023-05-22T21:55:46.157Z,99454.69
2023-05-22T21:58:13.919Z,99454.93
2023-05-22T22:00:41.930Z,99456.89
2023-05-22T22:03:09.929Z,99456.17
2023-05-22T22:05:37.834Z,99452.58
2023-05-22T22:08:06.218Z,99453.67
2023-05-22T22:10:33.986Z,99452.67
2023-05-22T22:13:02.569Z,99453.61
2023-05-22T22:15:31.979Z,99453.45
2023-05-22T22:18:02.586Z,99450.20
2023-05-22T22:20:44.173Z,99449.19
2023-05-22T22:23:13.003Z,99454.37
2023-05-22T22:25:40.858Z,99453.52
2023-05-22T22:28:08.658Z,99458.39
2023-05-22T22:30:36.413Z,99454.10
2023-05-22T22:33:04.312Z,99453.78
2023-05-22T22:35:32.339Z,99454.34
2023-05-22T22:38:00.146Z,99453.40
2023-05-22T22:40:28.084Z,99456.05
2023-05-22T22:42:55.956Z,99450.13
2023-05-22T22:45:23.821Z,99445.98
2023-05-22T22:47:53.344Z,99446.86
2023-05-22T22:50:21.824Z,99444.27
2023-05-22T22:52:49.728Z,99443.65
2023-05-22T22:55:17.659Z,99441.63
2023-05-22T22:57:50.250Z,99438.02
2023-05-22T23:00:19.442Z,99435.84
2023-05-22T23:02:47.299Z,99433.19
2023-05-22T23:05:17.064Z,99432.33
2023-05-22T23:07:44.990Z,99431.39
2023-05-22T23:10:14.079Z,99431.80
2023-05-22T23:12:42.182Z,99431.11
2023-05-22T23:15:13.620Z,99431.80
2023-05-22T23:17:41.649Z,99434.15
2023-05-22T23:20:10.596Z,99433.14
2023-05-22T23:22:38.353Z,99436.27
2023-05-22T23:25:06.838Z,99434.86
2023-05-22T23:27:34.557Z,99435.34
2023-05-22T23:30:04.581Z,99438.77
2023-05-22T23:32:32.519Z,99438.00
2023-05-22T23:35:00.304Z,99438.09
2023-05-22T23:37:28.030Z,99434.72
2023-05-22T23:39:56.000Z,99433.86
2023-05-22T23:42:23.776Z,99428.95
2023-05-22T23:44:51.538Z,99429.25
2023-05-22T23:47:20.944Z,99427.84
2023-05-22T23:49:48.731Z,99426.42
2023-05-22T23:52:16.780Z,99424.93
2023-05-22T23:54:44.649Z,99419.55
2023-05-22T23:57:12.727Z,99421.25
2023-05-22T23:59:40.901Z,99419.54
